Baltimore, Maryland
Traffic Map
Current Weather Conditions
Baltimore, Maryland
Scattered Clouds
Scattered Clouds
17°
Feels Like: 17°
Wind Chill: 17° Ceiling: Unl
Heat Index: 17° Visibility: 10mi
Dew Point: 14° Wind: 0mph
Humidity: 84% Direction: ° ()
Pressure: 30.2in Gusts: 0mph
Raw Report DataKBWI 260854Z 00000KT 10SM SCT250 17/14 A3020 RMK AO2 SLP225 T01720144 53002
Traffic Incident Summary
Active as of:
Severity:
Category:
InformationThere was an issue retrieving the traffic information for this location. Please try a different location or try again shortly.
Advertisements
Track Severe Weather on mobile